Suhl, Germany

12:01 PM CEST on August 29, 2014 (GMT +0200)
clara-zetkinstr.3 gotha thüringen deutschland | Change Station
CLOSE
Current Station
Personal Weather Station
Location: Gotha, THüRINGEN
Elevation: 945 ft
Nearby Weather Stations

Elev 945 ft 50.94 °N, 10.73 °E | Updated 56 seconds ago

Mostly Cloudy
Mostly Cloudy
69.1 °F
Feels Like 69.1 °F
N
0.0
Wind Variable Wind from NE
Gusts 0.0 mph

Today
High -- | Low -- °F
--% Chance of Precip.
Yesterday
High -- | Low -- °F
Precip. -- in
6:26 AM 8:09 PM
Waxing Crescent, 13% visible
Pressure 30.01 in
Visibility 6.2 miles
Clouds Mostly Cloudy 1700 ft
Dew Point 62 °F
Humidity 79%
Rainfall 0.00 in
Snow Depth Not available.
UV 2.0 out of 12
Pollen Not available.
Air Quality Not available.
Flu Activity Not available.
METAR EDDE 290950Z 28010KT 9999 BKN017 18/14 Q1016 TEMPO BKN014

More Conditions Fewer Conditions

Pressure 30.01 in
Visibility 6.2 miles
Clouds Mostly Cloudy 1700 ft
Dew Point 62 °F
Humidity 79%
Rainfall 0.00 in
Snow Depth Not available.
UV 2.0 out of 12
Pollen Not available.
Air Quality Not available.
Flu Activity Not available.
METAR EDDE 290950Z 28010KT 9999 BKN017 18/14 Q1016 TEMPO BKN014

More Conditions Fewer Conditions

10-Day Weather Forecast

Almanac

Astronomy

Aug. 29, 2014 Rise Set
Actual Time 6:26 AM CEST 8:09 PM CEST
Civil Twilight 5:51 AM CEST 8:43 PM CEST
Nautical Twilight 5:09 AM CEST 9:25 PM CEST
Astronomical Twilight 4:22 AM CEST 10:12 PM CEST
Moon 10:26 AM CEST 9:28 PM CEST
Length of Visible Light 14h 51m
Length of Day
13h 42m
Tomorrow will be 3m 41s shorter.
Waxing Crescent, 13% of the Moon is Illuminated
Today
Waxing Crescent
Sep 2
First Quarter
Sep 8
Full
Sep 15
Last Quarter
Sep 24
New

Yesterday's Extremes

Country Highs Country Lows

Community

WunderPhotos

Upload Photos

1,748,209 photos uploaded!

Nearby

Snow Depth

Not available.

Earthquake Activity

City Distance Mag. Time & Date
No recent earthquake activity has been reported nearby.
Minimum magnitude displayed is 2.5.

Coastal Water Temperatures

Place Temperature
No Stations Reporting

Nearby Weather Stations